createdAt,value
2023-01-29T00:00:40.018Z,100967.30
2023-01-29T00:03:08.295Z,100965.06
2023-01-29T00:05:36.878Z,100961.10
2023-01-29T00:08:05.607Z,100962.60
2023-01-29T00:10:36.286Z,100963.11
2023-01-29T00:13:05.815Z,100964.04
2023-01-29T00:15:34.748Z,100969.74
2023-01-29T00:18:02.943Z,100971.02
2023-01-29T00:20:34.885Z,100975.29
2023-01-29T00:23:03.231Z,100982.82
2023-01-29T00:25:31.995Z,100986.61
2023-01-29T00:28:00.182Z,100990.42
2023-01-29T00:30:28.841Z,100990.81
2023-01-29T00:32:57.810Z,100996.34
2023-01-29T00:35:26.011Z,100996.02
2023-01-29T00:37:57.901Z,100994.81
2023-01-29T00:40:27.309Z,100997.90
2023-01-29T00:43:14.349Z,100996.55
2023-01-29T00:45:42.524Z,100998.79
2023-01-29T00:48:10.644Z,100997.42
2023-01-29T00:50:39.104Z,100997.94
2023-01-29T00:53:07.541Z,101000.84
2023-01-29T00:55:36.298Z,101003.41
2023-01-29T00:58:04.652Z,101000.52
2023-01-29T01:00:33.051Z,100998.80
2023-01-29T01:03:07.612Z,100999.50
2023-01-29T01:05:37.204Z,100998.30
2023-01-29T01:08:25.606Z,100998.80
2023-01-29T01:11:05.171Z,101000.02
2023-01-29T01:13:34.346Z,101002.75
2023-01-29T01:16:02.897Z,101002.25
2023-01-29T01:18:31.130Z,101001.04
2023-01-29T01:20:59.817Z,101003.44
2023-01-29T01:23:28.243Z,100999.48
2023-01-29T01:25:56.461Z,100996.06
2023-01-29T01:28:24.954Z,100992.83
2023-01-29T01:30:53.322Z,100994.70
2023-01-29T01:33:21.455Z,100997.97
2023-01-29T01:35:49.806Z,101001.38
2023-01-29T01:38:19.906Z,100999.84
2023-01-29T01:40:48.808Z,100999.16
2023-01-29T01:43:16.990Z,101000.19
2023-01-29T01:45:46.946Z,101001.91
2023-01-29T01:48:23.965Z,100999.52
2023-01-29T01:51:03.833Z,101001.05
2023-01-29T01:53:42.389Z,101003.44
2023-01-29T01:56:16.016Z,101001.21
2023-01-29T01:58:47.418Z,101004.47
2023-01-29T02:01:15.596Z,101009.95
2023-01-29T02:04:12.806Z,101011.66
2023-01-29T02:06:59.958Z,101010.80
2023-01-29T02:10:00.525Z,101008.91
2023-01-29T02:12:31.422Z,101005.67
2023-01-29T02:15:00.066Z,101008.92
2023-01-29T02:17:28.336Z,101010.98
2023-01-29T02:20:02.144Z,101012.19
2023-01-29T02:22:55.405Z,101013.37
2023-01-29T02:25:26.737Z,101014.91
2023-01-29T02:28:21.933Z,101012.68
2023-01-29T02:30:59.167Z,101010.80
2023-01-29T02:33:36.497Z,101013.20
2023-01-29T02:36:10.634Z,101014.23
2023-01-29T02:38:38.727Z,101011.66
2023-01-29T02:41:22.824Z,101010.13
2023-01-29T02:44:02.783Z,101012.70
2023-01-29T02:46:47.611Z,101019.02
2023-01-29T02:49:32.100Z,101021.44
2023-01-29T02:52:04.887Z,101021.77
2023-01-29T02:54:44.797Z,101021.09
2023-01-29T02:57:43.635Z,101016.12
2023-01-29T03:00:26.096Z,101019.20
2023-01-29T03:03:23.369Z,101016.97
2023-01-29T03:05:59.374Z,101017.14
2023-01-29T03:08:43.400Z,101015.94
2023-01-29T03:11:15.459Z,101019.19
2023-01-29T03:13:51.382Z,101017.31
2023-01-29T03:16:53.395Z,101013.02
2023-01-29T03:19:36.493Z,101018.17
2023-01-29T03:22:08.682Z,101018.68
2023-01-29T03:25:08.871Z,101021.77
2023-01-29T03:28:00.758Z,101018.17
2023-01-29T03:30:53.651Z,101016.31
2023-01-29T03:33:35.893Z,101018.52
2023-01-29T03:36:10.800Z,101015.95
2023-01-29T03:38:40.204Z,101015.60
2023-01-29T03:41:29.883Z,101021.26
2023-01-29T03:43:58.076Z,101022.29
2023-01-29T03:46:29.913Z,101019.88
2023-01-29T07:54:44.449Z,101019.58
2023-01-29T07:57:13.783Z,101014.48
2023-01-29T07:59:41.917Z,101014.73
2023-01-29T08:02:10.259Z,101016.80
2023-01-29T08:04:41.533Z,101014.45
2023-01-29T08:07:10.473Z,101022.52
2023-01-29T08:09:39.397Z,101020.52
2023-01-29T08:12:07.524Z,101021.27
2023-01-29T08:14:35.645Z,101024.48
2023-01-29T08:17:03.971Z,101025.60
2023-01-29T08:19:32.189Z,101027.32
2023-01-29T08:22:00.433Z,101028.07
2023-01-29T08:24:41.484Z,101025.70
2023-01-29T08:27:17.209Z,101026.80
2023-01-29T08:29:45.411Z,101026.84
2023-01-29T08:32:33.456Z,101027.15
2023-01-29T08:35:01.610Z,101029.98
2023-01-29T08:37:30.130Z,101027.10
2023-01-29T08:39:58.442Z,101028.55
2023-01-29T08:42:26.644Z,101028.11
2023-01-29T08:44:54.779Z,101028.10
2023-01-29T08:47:22.897Z,101024.16
2023-01-29T08:49:51.054Z,101027.33
2023-01-29T08:52:19.184Z,101024.31
2023-01-29T08:54:48.131Z,101025.36
2023-01-29T08:57:16.608Z,101022.21
2023-01-29T08:59:44.705Z,101017.66
2023-01-29T09:02:14.963Z,101017.56
2023-01-29T09:04:44.284Z,101014.78
2023-01-29T09:07:12.556Z,101018.99
2023-01-29T09:09:40.744Z,101015.39
2023-01-29T09:12:09.253Z,101014.24
2023-01-29T09:14:37.611Z,101009.84
2023-01-29T09:17:08.116Z,101007.85
2023-01-29T09:19:36.997Z,101009.14
2023-01-29T09:22:05.812Z,101008.64
2023-01-29T09:24:35.329Z,101007.16
2023-01-29T09:27:03.409Z,101000.52
2023-01-29T09:29:35.779Z,101002.85
2023-01-29T09:32:04.817Z,101002.02
2023-01-29T09:34:33.460Z,101002.33
2023-01-29T09:37:01.796Z,101002.20
2023-01-29T09:39:30.410Z,100994.59
2023-01-29T09:42:10.707Z,100992.52
2023-01-29T09:44:41.703Z,100988.10
2023-01-29T09:47:13.458Z,100986.23
2023-01-29T09:50:02.603Z,100989.89
2023-01-29T09:53:10.554Z,100987.79
2023-01-29T09:55:45.353Z,100984.89
2023-01-29T09:58:26.127Z,100981.17
2023-01-29T10:01:06.247Z,100978.11
2023-01-29T10:04:12.252Z,100975.22
2023-01-29T10:06:50.028Z,100970.41
2023-01-29T10:09:55.456Z,100967.19
2023-01-29T10:12:23.593Z,100963.55
2023-01-29T10:15:17.834Z,100958.27
2023-01-29T10:18:12.805Z,100958.77
2023-01-29T10:20:53.988Z,100953.39
2023-01-29T10:23:23.601Z,100949.75
2023-01-29T10:25:51.818Z,100949.85
2023-01-29T10:28:46.562Z,100945.68
2023-01-29T10:31:33.020Z,100941.52
2023-01-29T10:34:12.342Z,100937.87
2023-01-29T10:36:42.866Z,100935.36
2023-01-29T10:39:21.520Z,100936.48
2023-01-29T10:42:23.973Z,100934.68
2023-01-29T10:45:32.732Z,100931.16
2023-01-29T10:48:30.002Z,100929.58
2023-01-29T10:51:14.839Z,100921.95
2023-01-29T10:54:24.221Z,100915.17
2023-01-29T10:57:10.117Z,100913.48
2023-01-29T10:59:47.260Z,100911.98
2023-01-29T11:02:18.214Z,100910.98
2023-01-29T11:04:46.602Z,100903.63
2023-01-29T11:07:16.690Z,100901.45
2023-01-29T11:10:04.177Z,100896.83
2023-01-29T11:12:33.868Z,100892.34
2023-01-29T11:15:26.317Z,100886.52
2023-01-29T11:18:23.862Z,100885.86
2023-01-29T11:21:03.993Z,100888.28
2023-01-29T11:23:33.708Z,100888.41
2023-01-29T11:26:11.087Z,100888.30
2023-01-29T11:28:40.253Z,100890.55
2023-01-29T11:31:35.466Z,100886.97
2023-01-29T11:34:18.986Z,100880.81
2023-01-29T11:36:47.188Z,100879.17
2023-01-29T11:39:17.911Z,100879.20
2023-01-29T11:42:05.266Z,100874.73
2023-01-29T11:44:42.151Z,100876.13
2023-01-29T11:47:21.536Z,100872.33
2023-01-29T16:00:57.883Z,100857.20
2023-01-29T16:03:27.593Z,100856.24
2023-01-29T16:05:54.395Z,100860.69
2023-01-29T16:08:25.393Z,100865.07
2023-01-29T16:10:57.681Z,100856.90
2023-01-29T16:13:27.357Z,100854.42
2023-01-29T16:15:59.239Z,100855.41
2023-01-29T16:18:32.378Z,100857.41
2023-01-29T16:21:24.606Z,100854.30
2023-01-29T16:23:57.805Z,100851.41
2023-01-29T16:26:27.454Z,100854.29
2023-01-29T16:28:54.294Z,100855.93
2023-01-29T16:31:30.974Z,100853.09
2023-01-29T16:33:58.489Z,100857.36
2023-01-29T16:36:30.139Z,100859.40
2023-01-29T16:38:59.905Z,100860.56
2023-01-29T16:41:35.351Z,100858.47
2023-01-29T16:44:14.992Z,100863.60
2023-01-29T16:46:46.506Z,100859.05
2023-01-29T16:49:28.723Z,100861.43
2023-01-29T16:51:56.381Z,100867.27
2023-01-29T16:54:27.272Z,100862.96
2023-01-29T16:56:59.349Z,100864.89
2023-01-29T16:59:33.016Z,100860.05
2023-01-29T17:01:59.885Z,100863.27
2023-01-29T17:04:26.597Z,100860.75
2023-01-29T17:06:55.412Z,100860.98
2023-01-29T17:09:30.845Z,100859.52
2023-01-29T17:12:07.808Z,100861.81
2023-01-29T17:14:41.487Z,100862.92
2023-01-29T17:17:14.717Z,100863.00
2023-01-29T17:19:41.418Z,100864.26
2023-01-29T17:22:14.194Z,100862.02
2023-01-29T17:24:41.900Z,100859.93
2023-01-29T17:27:21.436Z,100861.95
2023-01-29T17:29:48.447Z,100860.73
2023-01-29T17:32:18.305Z,100858.46
2023-01-29T17:34:46.438Z,100857.02
2023-01-29T17:37:14.848Z,100861.28
2023-01-29T17:39:44.392Z,100859.39
2023-01-29T17:42:13.167Z,100857.48
2023-01-29T17:44:42.056Z,100855.68
2023-01-29T17:47:16.803Z,100850.94
2023-01-29T17:49:44.294Z,100850.69
2023-01-29T17:52:11.286Z,100849.41
2023-01-29T17:54:38.295Z,100844.66
2023-01-29T17:57:05.057Z,100845.45
2023-01-29T17:59:32.602Z,100843.45
2023-01-29T18:01:59.523Z,100838.72
2023-01-29T18:04:26.669Z,100841.39
2023-01-29T18:06:53.896Z,100841.94
2023-01-29T18:09:21.123Z,100840.23
2023-01-29T18:11:48.862Z,100832.91
2023-01-29T18:14:15.762Z,100831.23
2023-01-29T18:16:43.398Z,100830.13
2023-01-29T18:19:26.773Z,100827.80
2023-01-29T18:21:54.034Z,100822.03
2023-01-29T18:24:20.757Z,100823.81
2023-01-29T18:26:48.338Z,100823.52
2023-01-29T18:29:15.679Z,100827.45
2023-01-29T18:31:42.521Z,100824.98
2023-01-29T18:34:09.418Z,100820.56
2023-01-29T18:36:36.787Z,100816.69
2023-01-29T18:39:03.600Z,100818.83
2023-01-29T18:41:30.647Z,100815.77
2023-01-29T18:43:57.467Z,100812.38
2023-01-29T18:46:24.337Z,100817.09
2023-01-29T18:48:53.669Z,100820.95
2023-01-29T18:51:20.639Z,100826.89
2023-01-29T18:53:50.883Z,100826.46
2023-01-29T18:56:20.632Z,100822.62
2023-01-29T18:58:52.719Z,100827.55
2023-01-29T19:01:23.259Z,100827.97
2023-01-29T19:03:50.129Z,100824.41
2023-01-29T19:06:17.040Z,100821.86
2023-01-29T19:08:44.227Z,100823.98
2023-01-29T19:11:11.981Z,100834.47
2023-01-29T19:13:40.345Z,100836.61
2023-01-29T19:16:11.498Z,100835.61
2023-01-29T19:18:38.568Z,100836.54
2023-01-29T19:21:10.917Z,100840.25
2023-01-29T19:23:37.726Z,100834.98
2023-01-29T19:26:05.364Z,100831.79
2023-01-29T19:28:32.401Z,100831.88
2023-01-29T19:30:59.656Z,100835.25
2023-01-29T19:33:27.242Z,100837.55
2023-01-29T19:35:57.977Z,100838.84
2023-01-29T19:38:24.977Z,100838.08
2023-01-29T19:40:51.964Z,100834.22
2023-01-29T19:43:18.751Z,100830.66
2023-01-29T19:45:50.733Z,100828.21
2023-01-29T23:59:42.285Z,100684.64
